createdAt,value
2018-11-28T00:00:03.840Z,66.30
2018-11-28T00:02:31.726Z,70.37
2018-11-28T00:05:00.002Z,75.97
2018-11-28T00:07:28.013Z,66.63
2018-11-28T00:09:56.149Z,73.93
2018-11-28T00:12:24.176Z,70.00
2018-11-28T00:14:52.087Z,71.27
2018-11-28T00:17:20.195Z,73.07
2018-11-28T00:19:48.280Z,60.93
2018-11-28T00:22:16.255Z,58.93
2018-11-28T00:24:44.339Z,66.13
2018-11-28T00:27:12.179Z,68.83
2018-11-28T00:29:40.102Z,59.20
2018-11-28T00:32:07.994Z,57.20
2018-11-28T00:34:37.207Z,60.80
2018-11-28T00:37:05.138Z,59.63
2018-11-28T00:39:33.280Z,61.87
2018-11-28T00:42:01.226Z,63.77
2018-11-28T00:44:29.007Z,64.57
2018-11-28T00:46:56.813Z,57.83
2018-11-28T00:49:24.705Z,63.97
2018-11-28T00:51:52.480Z,50.07
2018-11-28T00:54:20.218Z,52.13
2018-11-28T00:56:48.104Z,51.40
2018-11-28T00:59:15.891Z,55.90
2018-11-28T01:01:44.036Z,49.27
2018-11-28T01:04:11.776Z,50.37
2018-11-28T01:06:40.711Z,45.70
2018-11-28T01:09:08.467Z,53.53
2018-11-28T01:11:38.287Z,49.30
2018-11-28T01:14:06.200Z,47.10
2018-11-28T01:16:33.975Z,41.50
2018-11-28T01:19:01.747Z,40.27
2018-11-28T01:21:29.555Z,44.90
2018-11-28T01:23:57.307Z,37.17
2018-11-28T01:26:25.052Z,37.63
2018-11-28T01:28:53.960Z,35.83
2018-11-28T01:31:21.726Z,37.57
2018-11-28T01:33:49.897Z,40.63
2018-11-28T01:36:17.684Z,41.80
2018-11-28T01:38:45.616Z,39.77
2018-11-28T01:41:13.380Z,41.97
2018-11-28T01:43:42.435Z,56.40
2018-11-28T01:46:10.187Z,45.97
2018-11-28T01:48:40.056Z,52.33
2018-11-28T01:51:08.020Z,57.10
2018-11-28T01:53:35.808Z,58.47
2018-11-28T01:56:03.615Z,59.50
2018-11-28T01:58:31.368Z,48.60
2018-11-28T02:00:59.166Z,62.00
2018-11-28T02:03:26.927Z,78.00
2018-11-28T02:05:54.770Z,69.43
2018-11-28T02:08:23.762Z,58.17
2018-11-28T02:10:51.955Z,65.07
2018-11-28T02:13:19.752Z,65.90
2018-11-28T02:15:47.638Z,63.30
2018-11-28T02:18:15.522Z,57.87
2018-11-28T02:20:43.399Z,56.43
2018-11-28T02:23:11.285Z,50.70
2018-11-28T02:25:39.225Z,50.30
2018-11-28T02:28:07.091Z,48.20
2018-11-28T02:30:34.960Z,52.07
2018-11-28T02:33:02.821Z,62.33
2018-11-28T02:35:30.704Z,53.80
2018-11-28T02:37:58.578Z,58.23
2018-11-28T02:40:26.530Z,65.73
2018-11-28T02:42:54.392Z,71.43
2018-11-28T02:45:22.459Z,71.63
2018-11-28T02:47:50.903Z,52.50
2018-11-28T02:50:18.849Z,55.03
2018-11-28T02:52:46.698Z,40.03
2018-11-28T02:55:14.978Z,42.20
2018-11-28T02:57:43.421Z,42.53
2018-11-28T03:00:12.168Z,35.00
2018-11-28T03:02:40.367Z,37.23
2018-11-28T03:05:09.135Z,37.10
2018-11-28T03:07:37.162Z,36.23
2018-11-28T03:10:07.457Z,36.10
2018-11-28T03:12:35.738Z,37.87
2018-11-28T03:15:04.012Z,40.47
2018-11-28T03:17:31.893Z,42.40
2018-11-28T03:19:59.729Z,47.37
2018-11-28T03:22:27.516Z,42.40
2018-11-28T03:24:55.256Z,41.93
2018-11-28T03:27:23.272Z,42.40
2018-11-28T03:29:51.055Z,41.47
2018-11-28T03:32:18.967Z,48.03
2018-11-28T03:34:46.720Z,40.27
2018-11-28T03:37:15.702Z,47.70
2018-11-28T03:39:43.639Z,47.93
2018-11-28T03:42:11.409Z,47.80
2018-11-28T03:44:39.379Z,55.17
2018-11-28T03:47:07.176Z,49.70
2018-11-28T03:49:36.024Z,43.20
2018-11-28T03:52:04.004Z,46.70
2018-11-28T03:54:31.819Z,49.53
2018-11-28T03:56:59.621Z,47.50
2018-11-28T03:59:27.579Z,49.87
2018-11-28T04:02:04.631Z,44.67
2018-11-28T04:07:37.769Z,43.00
2018-11-28T04:10:06.833Z,40.20
2018-11-28T04:12:34.850Z,38.27
2018-11-28T04:15:02.743Z,36.03
2018-11-28T04:17:32.583Z,40.03
2018-11-28T04:20:00.371Z,37.23
2018-11-28T04:22:28.139Z,40.53
2018-11-28T04:24:55.940Z,39.50
2018-11-28T04:27:23.723Z,36.90
2018-11-28T04:29:51.477Z,34.87
2018-11-28T04:32:19.246Z,33.13
2018-11-28T04:34:47.008Z,30.63
2018-11-28T04:37:15.212Z,35.97
2018-11-28T04:39:42.988Z,39.20
2018-11-28T04:42:10.747Z,39.53
2018-11-28T04:44:38.618Z,25.97
2018-11-28T04:47:06.470Z,23.87
2018-11-28T04:49:36.313Z,30.57
2018-11-28T04:52:04.117Z,26.20
2018-11-28T04:54:33.311Z,26.27
2018-11-28T04:57:01.065Z,24.27
2018-11-28T04:59:29.861Z,25.77
2018-11-28T05:01:57.622Z,21.77
2018-11-28T05:04:25.419Z,21.27
2018-11-28T05:07:24.833Z,20.13
2018-11-28T05:09:53.145Z,19.17
2018-11-28T05:12:21.317Z,21.97
2018-11-28T05:14:49.500Z,17.40
2018-11-28T05:17:17.288Z,25.80
2018-11-28T05:19:45.077Z,21.03
2018-11-28T05:22:13.301Z,19.80
2018-11-28T05:24:41.369Z,20.30
2018-11-28T05:27:09.259Z,23.33
2018-11-28T05:32:17.373Z,25.67
2018-11-28T05:34:45.164Z,23.13
2018-11-28T05:37:13.001Z,24.60
2018-11-28T05:39:40.780Z,24.80
2018-11-28T05:42:08.549Z,20.60
2018-11-28T05:44:36.330Z,21.37
2018-11-28T05:47:04.169Z,22.93
2018-11-28T05:49:32.056Z,18.67
2018-11-28T05:52:00.114Z,21.83
2018-11-28T05:54:27.843Z,22.60
2018-11-28T05:56:55.651Z,20.03
2018-11-28T05:59:27.285Z,19.60
2018-11-28T06:01:51.244Z,16.03
2018-11-28T06:04:19.030Z,17.63
2018-11-28T06:06:46.965Z,18.10
2018-11-28T06:09:14.899Z,17.63
2018-11-28T06:11:42.802Z,17.13
2018-11-28T06:14:10.570Z,18.63
2018-11-28T06:16:38.392Z,17.27
2018-11-28T06:19:06.411Z,15.07
2018-11-28T06:21:34.431Z,14.57
2018-11-28T06:24:02.239Z,16.60
2018-11-28T06:26:30.030Z,12.77
2018-11-28T06:28:58.003Z,16.20
2018-11-28T06:31:26.070Z,15.10
2018-11-28T06:33:53.861Z,15.20
2018-11-28T06:36:21.626Z,13.80
2018-11-28T06:38:49.590Z,14.53
2018-11-28T06:41:17.432Z,17.30
2018-11-28T06:43:45.313Z,16.90
2018-11-28T06:46:13.358Z,19.30
2018-11-28T06:48:41.202Z,16.30
2018-11-28T06:51:09.033Z,15.73
2018-11-28T06:53:36.805Z,18.40
2018-11-28T06:56:04.670Z,14.27
2018-11-28T06:58:32.440Z,18.30
2018-11-28T07:01:00.218Z,16.13
2018-11-28T07:03:27.996Z,16.77
2018-11-28T07:05:55.780Z,18.63
2018-11-28T07:08:23.608Z,21.50
2018-11-28T07:10:51.386Z,19.97
2018-11-28T07:13:20.200Z,17.87
2018-11-28T07:15:47.987Z,16.93
2018-11-28T07:18:21.254Z,19.50
2018-11-28T07:20:49.063Z,16.37
2018-11-28T07:23:16.854Z,17.13
2018-11-28T07:25:44.684Z,16.37
2018-11-28T07:28:12.484Z,18.83
2018-11-28T07:30:40.440Z,17.90
2018-11-28T07:33:08.366Z,14.90
2018-11-28T07:35:36.523Z,14.60
2018-11-28T07:38:04.869Z,16.83
2018-11-28T07:40:32.652Z,17.60
2018-11-28T07:43:02.445Z,13.97
2018-11-28T07:45:30.208Z,13.67
2018-11-28T07:47:57.999Z,13.80
2018-11-28T07:50:25.792Z,14.60
2018-11-28T07:52:53.566Z,13.40
2018-11-28T07:55:21.570Z,10.97
2018-11-28T07:57:49.829Z,15.13
2018-11-28T08:00:17.766Z,14.47
2018-11-28T08:02:45.769Z,16.10
2018-11-28T08:05:13.729Z,13.37
2018-11-28T08:07:41.689Z,14.40
2018-11-28T08:10:15.615Z,12.87
2018-11-28T08:12:43.588Z,15.40
2018-11-28T08:15:11.530Z,14.07
2018-11-28T08:17:39.512Z,13.27
2018-11-28T08:20:07.798Z,16.13
2018-11-28T08:22:36.285Z,12.40
2018-11-28T08:25:04.274Z,13.47
2018-11-28T08:27:31.964Z,15.00
2018-11-28T08:30:00.169Z,13.67
2018-11-28T08:32:28.463Z,11.73
2018-11-28T08:34:56.669Z,12.70
2018-11-28T08:37:24.931Z,13.00
2018-11-28T08:39:52.989Z,12.63
2018-11-28T08:42:21.049Z,17.50
2018-11-28T08:44:50.145Z,16.30
2018-11-28T08:47:18.234Z,13.67
2018-11-28T08:49:46.484Z,16.43
2018-11-28T08:52:14.571Z,15.30
2018-11-28T08:54:43.809Z,16.27
2018-11-28T08:57:11.598Z,16.87
2018-11-28T08:59:39.404Z,13.53
2018-11-28T09:02:07.623Z,15.20
2018-11-28T09:04:35.463Z,14.47
2018-11-28T09:09:56.914Z,12.90
2018-11-28T09:12:24.791Z,9.63
2018-11-28T09:14:52.803Z,10.17
2018-11-28T09:17:20.619Z,9.83
2018-11-28T09:19:48.435Z,10.67
2018-11-28T09:22:28.811Z,9.37
2018-11-28T09:24:56.818Z,12.47
2018-11-28T09:27:24.741Z,9.30
2018-11-28T09:29:52.690Z,10.40
2018-11-28T09:32:20.629Z,9.57
2018-11-28T09:34:48.663Z,10.27
2018-11-28T09:37:16.592Z,12.83
2018-11-28T09:39:44.573Z,7.90
2018-11-28T09:42:12.553Z,7.70
2018-11-28T09:44:40.587Z,7.93
2018-11-28T09:47:08.497Z,8.10
2018-11-28T09:49:36.431Z,9.30
2018-11-28T09:52:04.426Z,9.13
2018-11-28T09:54:32.390Z,9.00
2018-11-28T09:57:00.299Z,10.67
2018-11-28T09:59:28.192Z,12.47
2018-11-28T10:01:56.055Z,11.50
2018-11-28T10:04:24.077Z,14.33
2018-11-28T10:06:52.011Z,14.60
2018-11-28T10:09:20.026Z,8.53
2018-11-28T10:11:47.934Z,16.30
2018-11-28T10:14:15.925Z,8.37
2018-11-28T10:16:44.565Z,8.57
2018-11-28T10:19:11.881Z,9.20
2018-11-28T10:21:39.856Z,10.37
2018-11-28T10:24:07.715Z,5.63
2018-11-28T10:26:35.563Z,8.83
2018-11-28T10:29:03.565Z,8.30
2018-11-28T10:31:31.352Z,8.57
2018-11-28T10:33:59.237Z,10.07
2018-11-28T10:36:30.459Z,7.90
2018-11-28T10:38:59.191Z,9.77
2018-11-28T10:41:27.778Z,8.17
2018-11-28T10:43:56.218Z,8.83
2018-11-28T10:46:24.596Z,10.47
2018-11-28T10:48:53.091Z,10.57
2018-11-28T10:51:21.670Z,10.53
2018-11-28T10:53:50.405Z,10.83
2018-11-28T10:56:18.970Z,11.93
2018-11-28T10:58:47.347Z,12.13
2018-11-28T11:01:23.242Z,16.27
2018-11-28T11:03:59.892Z,16.63
2018-11-28T11:06:33.676Z,15.63
2018-11-28T11:09:07.412Z,14.90
2018-11-28T11:11:41.231Z,16.80
2018-11-28T11:14:15.079Z,18.10
2018-11-28T11:16:43.060Z,17.73
2018-11-28T11:19:10.848Z,20.10
2018-11-28T11:21:38.598Z,22.98
2018-11-28T11:24:06.361Z,22.87
2018-11-28T11:26:34.377Z,23.57
2018-11-28T11:29:02.447Z,22.53
2018-11-28T11:31:30.481Z,18.60
2018-11-28T11:36:38.703Z,17.53
2018-11-28T11:39:07.097Z,23.27
2018-11-28T11:41:34.864Z,22.07
2018-11-28T11:44:02.740Z,26.40
2018-11-28T11:46:30.541Z,21.37
2018-11-28T11:48:58.364Z,19.40
2018-11-28T11:51:26.644Z,25.87
2018-11-28T11:53:54.598Z,21.47
2018-11-28T11:56:22.388Z,25.40
2018-11-28T11:58:50.161Z,21.63
2018-11-28T12:01:18.036Z,22.90
2018-11-28T12:03:45.796Z,23.33
2018-11-28T12:06:13.613Z,20.57
2018-11-28T12:08:41.402Z,19.93
2018-11-28T12:11:09.269Z,20.60
2018-11-28T12:13:37.091Z,21.50
2018-11-28T12:16:05.708Z,21.53
2018-11-28T12:18:33.707Z,20.50
2018-11-28T12:21:02.409Z,21.13
2018-11-28T12:23:30.200Z,18.60
2018-11-28T12:25:58.075Z,18.87
2018-11-28T12:28:25.831Z,19.23
2018-11-28T12:30:53.633Z,18.00
2018-11-28T12:33:21.429Z,15.07
2018-11-28T12:35:49.191Z,16.30
2018-11-28T12:38:16.969Z,15.50
2018-11-28T12:40:44.737Z,16.40
2018-11-28T12:43:12.932Z,18.87
2018-11-28T12:45:41.541Z,14.23
2018-11-28T12:48:09.306Z,14.07
2018-11-28T12:50:37.175Z,14.07
2018-11-28T12:53:05.607Z,11.77
2018-11-28T12:55:34.115Z,16.93
2018-11-28T12:58:01.914Z,13.97
2018-11-28T13:00:30.615Z,16.00
2018-11-28T13:02:58.373Z,12.53
2018-11-28T13:05:26.467Z,12.40
2018-11-28T13:07:54.311Z,11.70
2018-11-28T13:10:23.741Z,14.53
2018-11-28T13:12:51.614Z,10.20
2018-11-28T13:15:20.239Z,10.53
2018-11-28T13:17:48.113Z,10.30
2018-11-28T13:20:17.288Z,8.90
2018-11-28T13:22:45.578Z,7.93
2018-11-28T13:25:13.918Z,9.53
2018-11-28T13:27:41.774Z,9.10
2018-11-28T13:30:12.004Z,9.23
2018-11-28T13:32:40.203Z,8.33
2018-11-28T13:35:08.035Z,6.90
2018-11-28T13:37:35.998Z,7.93
2018-11-28T13:40:04.059Z,8.83
2018-11-28T13:42:31.859Z,7.80
2018-11-28T13:44:59.727Z,7.63
2018-11-28T13:47:27.486Z,9.53
2018-11-28T13:49:55.270Z,7.63
2018-11-28T13:52:23.040Z,7.63
2018-11-28T13:55:37.475Z,8.17
2018-11-28T13:57:18.824Z,7.87
2018-11-28T13:59:46.576Z,8.63
2018-11-28T14:02:14.334Z,7.53
2018-11-28T14:04:42.117Z,8.07
2018-11-28T14:07:10.279Z,9.10
2018-11-28T14:09:38.251Z,8.90
2018-11-28T14:12:06.077Z,8.60
2018-11-28T14:14:34.017Z,8.93
2018-11-28T14:17:01.883Z,9.00
2018-11-28T14:19:29.745Z,9.57
2018-11-28T14:21:57.549Z,9.73
2018-11-28T14:24:25.300Z,9.97
2018-11-28T14:26:53.092Z,10.13
2018-11-28T14:29:21.269Z,9.60
2018-11-28T14:31:49.050Z,9.97
2018-11-28T14:34:16.938Z,10.63
2018-11-28T14:36:45.698Z,10.70
2018-11-28T14:39:13.435Z,9.10
2018-11-28T14:41:41.498Z,9.77
2018-11-28T14:44:09.269Z,10.83
2018-11-28T14:46:37.052Z,9.97
2018-11-28T14:49:04.959Z,10.40
2018-11-28T14:51:33.427Z,10.17
2018-11-28T14:54:01.359Z,11.47
2018-11-28T14:56:29.357Z,10.80
2018-11-28T14:58:57.122Z,10.53
2018-11-28T15:01:25.022Z,11.10
2018-11-28T15:03:53.342Z,11.20
2018-11-28T15:06:53.277Z,13.90
2018-11-28T15:09:27.113Z,12.17
2018-11-28T15:11:54.954Z,11.87
2018-11-28T15:14:22.789Z,14.00
2018-11-28T15:16:50.582Z,13.37
2018-11-28T15:19:18.417Z,13.70
2018-11-28T15:21:46.279Z,13.93
2018-11-28T15:24:14.114Z,14.23
2018-11-28T15:26:42.306Z,15.67
2018-11-28T15:29:11.125Z,15.47
2018-11-28T15:31:39.047Z,13.60
2018-11-28T15:34:07.077Z,16.30
2018-11-28T15:36:35.206Z,18.73
2018-11-28T15:39:04.247Z,19.70
2018-11-28T15:41:32.263Z,19.10
2018-11-28T15:44:00.128Z,19.43
2018-11-28T15:46:28.892Z,19.40
2018-11-28T15:48:56.859Z,22.77
2018-11-28T15:51:24.731Z,20.27
2018-11-28T15:53:52.597Z,19.93
2018-11-28T15:56:20.735Z,20.37
2018-11-28T15:58:48.498Z,20.30
2018-11-28T16:01:16.603Z,20.30
2018-11-28T16:03:44.393Z,23.13
2018-11-28T16:06:12.338Z,20.17
2018-11-28T16:08:40.146Z,25.47
2018-11-28T16:11:10.360Z,23.83
2018-11-28T16:13:38.197Z,21.73
2018-11-28T16:16:06.502Z,23.70
2018-11-28T16:18:34.335Z,21.93
2018-11-28T16:21:03.288Z,23.93
2018-11-28T16:23:31.306Z,24.10
2018-11-28T16:25:59.151Z,23.77
2018-11-28T16:28:27.013Z,21.53
2018-11-28T16:30:54.974Z,20.73
2018-11-28T16:33:22.772Z,22.13
2018-11-28T16:35:50.666Z,22.67
2018-11-28T16:38:18.436Z,24.10
2018-11-28T16:40:46.219Z,23.27
2018-11-28T16:43:14.084Z,23.70
2018-11-28T16:45:41.946Z,21.37
2018-11-28T16:48:09.657Z,21.00
2018-11-28T16:50:37.505Z,22.37
2018-11-28T16:53:05.452Z,21.37
2018-11-28T16:55:33.377Z,24.90
2018-11-28T16:58:01.409Z,24.40
2018-11-28T17:03:33.837Z,20.57
2018-11-28T17:06:01.715Z,19.87
2018-11-28T17:08:29.694Z,23.17
2018-11-28T17:10:57.553Z,20.87
2018-11-28T17:13:25.569Z,23.10
2018-11-28T17:15:53.476Z,20.07
2018-11-28T17:18:21.667Z,22.13
2018-11-28T17:20:49.754Z,20.13
2018-11-28T17:23:17.667Z,21.40
2018-11-28T17:25:47.279Z,18.00
2018-11-28T17:28:16.405Z,21.57
2018-11-28T17:30:44.316Z,24.77
2018-11-28T17:33:12.266Z,21.80
2018-11-28T17:35:40.209Z,21.50
2018-11-28T17:38:08.201Z,19.03
2018-11-28T17:40:36.102Z,22.50
2018-11-28T17:43:04.214Z,18.63
2018-11-28T17:45:32.138Z,20.63
2018-11-28T17:48:00.080Z,17.27
2018-11-28T17:50:28.015Z,19.40
2018-11-28T17:52:56.729Z,20.50
2018-11-28T17:55:25.203Z,18.80
2018-11-28T17:57:53.119Z,19.67
2018-11-28T18:00:21.025Z,19.20
2018-11-28T18:02:48.858Z,22.77
2018-11-28T18:05:16.699Z,17.43
2018-11-28T18:07:44.560Z,21.13
2018-11-28T18:10:13.276Z,18.10
2018-11-28T18:12:46.540Z,16.37
2018-11-28T18:15:14.325Z,20.57
2018-11-28T18:17:42.253Z,22.73
2018-11-28T18:20:10.067Z,15.17
2018-11-28T18:22:37.918Z,18.47
2018-11-28T18:25:07.235Z,17.70
2018-11-28T18:27:35.155Z,13.97
2018-11-28T18:30:03.251Z,20.47
2018-11-28T18:32:31.243Z,19.87
2018-11-28T18:34:59.099Z,16.20
2018-11-28T18:37:26.885Z,14.13
2018-11-28T18:39:54.831Z,17.77
2018-11-28T18:42:22.696Z,19.90
2018-11-28T18:50:22.848Z,17.13
2018-11-28T18:52:50.979Z,15.93
2018-11-28T18:55:19.424Z,13.67
2018-11-28T18:57:48.256Z,12.20
2018-11-28T19:00:16.901Z,10.30
2018-11-28T19:02:45.013Z,12.40
2018-11-28T19:05:12.897Z,9.83
2018-11-28T19:07:40.801Z,9.13
2018-11-28T19:10:09.436Z,15.00
2018-11-28T19:12:37.440Z,10.57
2018-11-28T19:15:07.150Z,13.47
2018-11-28T19:17:35.079Z,13.63
2018-11-28T19:20:03.427Z,12.97
2018-11-28T19:22:31.422Z,12.93
2018-11-28T19:24:59.323Z,9.10
2018-11-28T19:27:27.250Z,11.47
2018-11-28T19:29:55.126Z,8.00
2018-11-28T19:32:23.043Z,9.67
2018-11-28T19:34:51.016Z,6.63
2018-11-28T19:37:19.003Z,14.67
2018-11-28T19:39:46.986Z,10.97
2018-11-28T19:42:16.201Z,13.03
2018-11-28T19:44:44.164Z,9.73
2018-11-28T19:47:12.166Z,11.23
2018-11-28T19:52:05.972Z,8.13
2018-11-28T19:54:33.801Z,9.70
2018-11-28T19:57:02.293Z,8.33
2018-11-28T19:59:31.190Z,13.47
2018-11-28T20:01:59.409Z,9.27
2018-11-28T20:04:28.689Z,7.40
2018-11-28T20:06:56.635Z,8.63
2018-11-28T20:09:24.701Z,8.83
2018-11-28T20:11:52.590Z,7.43
2018-11-28T20:14:21.878Z,8.10
2018-11-28T20:16:50.209Z,7.60
2018-11-28T20:19:18.515Z,7.63
2018-11-28T20:21:46.349Z,7.43
2018-11-28T20:24:15.251Z,8.40
2018-11-28T20:26:43.467Z,6.17
2018-11-28T20:29:11.377Z,7.00
2018-11-28T20:31:39.288Z,5.07
2018-11-28T20:34:07.565Z,8.73
2018-11-28T20:36:35.549Z,8.53
2018-11-28T20:39:04.979Z,8.47
2018-11-28T20:41:32.798Z,11.70
2018-11-28T20:44:00.570Z,7.97
2018-11-28T20:46:28.403Z,6.17
2018-11-28T20:48:56.354Z,9.50
2018-11-28T20:51:24.229Z,15.93
2018-11-28T20:53:52.012Z,12.10
2018-11-28T20:56:19.985Z,10.03
2018-11-28T20:58:47.766Z,14.80
2018-11-28T21:01:15.611Z,11.93
2018-11-28T21:03:43.768Z,10.23
2018-11-28T21:06:11.782Z,15.40
2018-11-28T21:08:39.566Z,13.20
2018-11-28T21:11:07.565Z,10.83
2018-11-28T21:13:36.331Z,13.77
2018-11-28T21:16:06.995Z,12.87
2018-11-28T21:18:35.762Z,13.87
2018-11-28T21:21:04.259Z,11.93
2018-11-28T21:23:32.703Z,11.07
2018-11-28T21:26:01.221Z,14.10
2018-11-28T21:28:30.796Z,13.70
2018-11-28T21:30:59.318Z,15.57
2018-11-28T21:33:27.763Z,13.97
2018-11-28T21:35:56.159Z,16.80
2018-11-28T21:38:24.609Z,12.17
2018-11-28T21:40:53.402Z,12.60
2018-11-28T21:43:21.692Z,10.37
2018-11-28T21:45:50.175Z,15.33
2018-11-28T21:48:18.842Z,11.97
2018-11-28T21:50:47.553Z,12.20
2018-11-28T21:53:16.082Z,10.10
2018-11-28T21:55:44.307Z,11.57
2018-11-28T21:58:12.761Z,9.67
2018-11-28T22:00:41.184Z,13.73
2018-11-28T22:03:09.707Z,9.97
2018-11-28T22:05:38.200Z,11.43
2018-11-28T22:08:06.664Z,12.93
2018-11-28T22:10:35.187Z,7.93
2018-11-28T22:13:03.551Z,9.30
2018-11-28T22:15:31.933Z,5.47
2018-11-28T22:18:00.525Z,11.13
2018-11-28T22:20:29.192Z,8.83
2018-11-28T22:22:57.579Z,7.63
2018-11-28T22:25:26.415Z,9.37
2018-11-28T22:27:54.909Z,10.57
2018-11-28T22:30:25.076Z,7.07
2018-11-28T22:32:53.478Z,9.63
2018-11-28T22:35:21.729Z,8.40
2018-11-28T22:37:49.789Z,8.07
2018-11-28T22:40:19.628Z,9.60
2018-11-28T22:42:47.789Z,12.43
2018-11-28T22:45:17.639Z,8.57
2018-11-28T22:47:46.196Z,9.40
2018-11-28T22:50:14.475Z,5.80
2018-11-28T22:52:42.566Z,5.47
2018-11-28T22:55:12.192Z,7.57
2018-11-28T22:57:40.321Z,7.63
2018-11-28T23:00:12.325Z,5.03
2018-11-28T23:02:46.090Z,7.70
2018-11-28T23:05:14.243Z,9.87
2018-11-28T23:07:42.453Z,6.13
2018-11-28T23:10:10.611Z,4.07
2018-11-28T23:12:38.991Z,5.23
2018-11-28T23:15:07.202Z,9.83
2018-11-28T23:17:36.766Z,6.57
2018-11-28T23:20:05.345Z,6.10
2018-11-28T23:22:33.811Z,6.47
2018-11-28T23:25:02.043Z,7.67
2018-11-28T23:27:30.394Z,5.23
2018-11-28T23:29:58.756Z,6.77
2018-11-28T23:32:26.914Z,7.90
2018-11-28T23:34:55.258Z,7.07
2018-11-28T23:37:23.407Z,9.03
2018-11-28T23:39:51.579Z,8.43
2018-11-28T23:42:19.936Z,4.53
2018-11-28T23:44:48.215Z,6.53
2018-11-28T23:47:16.481Z,4.07
2018-11-28T23:49:45.003Z,8.07
2018-11-28T23:52:13.333Z,7.87
2018-11-28T23:54:41.786Z,5.07
2018-11-28T23:57:10.053Z,5.53
2018-11-28T23:59:38.796Z,10.87
